METAR-Meldungen aus der Umgebung

   
EDMO - Oberpfaffenhofen, Germany
Entfernung von der Station bis: SSO 18 km
Aktualisierung: 20-08-2019 16:20
Regen, Bewölkt  
Regen, Bewölkt  
   Wind: WNW 16.7 km/h
Wind: WNW 16.7 km/h
Temperatur: 16°C
Taupunkt: 16°C
Luftfeuchte: 100%
Luftdruck: 1022 hPa
Bewölkt: Overcast
Sichtbarkeit: 3 km
Bewölkung: Stark bewölkt 500 ft,
Bewölkt 1100 ft
EDMO 201420Z 30009KT 270V330 3000 RA BKN005 OVC011 16/16 Q1022
ETSL - Lechfeld (ger-Af, Germany
Entfernung von der Station bis: WSW 23 km
Aktualisierung: 20-08-2019 16:20
Regen, Nieselregen, Nebel, Bewölkt  
Regen, Nieselregen, Nebel, Bewölkt  
   Wind: NW 11.1 km/h
Wind: NW 11.1 km/h
Temperatur: 16°C
Taupunkt: 15°C
Luftfeuchte: 94%
Luftdruck: 1022 hPa
Bewölkt: Overcast
Sichtbarkeit: 4 km
Bewölkung: Teilweise bewölkt 600 ft,
Stark bewölkt 1200 ft,
Bewölkt 3000 ft
ETSL 201420Z 31006KT 4000 RADZ BR SCT006 BKN012 OVC030 16/15 Q1022 GRN WHT TEMPO YLO
EDMA - Augsburg/Mulhaus, Germany
Entfernung von der Station bis: NW 30 km
Aktualisierung: 20-08-2019 16:20
Leichter Niederschlag möglich, Bewölkt  
Leichter Niederschlag möglich, Bewölkt  
   Wind: NW 13 km/h
Wind: NW 13 km/h
Temperatur: 17°C
Taupunkt: 15°C
Luftfeuchte: 88%
Luftdruck: 1022 hPa
Bewölkt: Overcast
Sichtbarkeit: Mehr als 10 km
Bewölkung: leicht bewölkt 1400 ft,
Bewölkt 5500 ft
EDMA 201420Z 32007KT 9999 -RA FEW014 OVC055 17/15 Q1022
ETHA - Altenstadt/Schon, Germany
Entfernung von der Station bis: SSW 49 km
Aktualisierung: 20-08-2019 16:20
Regen, Nebel, Stark bewölkt  
Regen, Nebel, Stark bewölkt  
   Wind: NNW 20.4 km/h
Wind: NNW 20.4 km/h
Temperatur: 14°C
Taupunkt: 14°C
Luftfeuchte: 100%
Luftdruck: 1022 hPa
Bewölkt: Mostly Cloudy
Sichtbarkeit: 5 km
Bewölkung: leicht bewölkt 500 ft,
Stark bewölkt 2300 ft,
Stark bewölkt 4000 ft
ETHA 201420Z 33011KT 5000 RA BR FEW005 BKN023 BKN040 14/14 Q1022 WHT BLU TEMPO YLO
EDDM - Munich-Flughafen, Germany
Entfernung von der Station bis: ONO 50 km
Aktualisierung: 20-08-2019 16:20
Stark bewölkt  
Stark bewölkt  
   Wind: Norden 9.3 km/h
Wind: Norden 9.3 km/h
Temperatur: 20°C
Taupunkt: 17°C
Luftfeuchte: 83%
Luftdruck: 1021 hPa
Bewölkt: Mostly Cloudy
Sichtbarkeit: Mehr als 10 km
Bewölkung: Teilweise bewölkt 1000 ft,
Stark bewölkt 2900 ft
EDDM 201420Z 36005KT 330V030 9999 SCT010 BKN029 20/17 Q1021 NOSIG
 

Script entwickelt von  Saratoga-weather.org Angepasst für das Template von  Weerstation Leuven